sensor_id;sensor_type;location;lat;lon;timestamp;P1;durP1;ratioP1;P2;durP2;ratioP2
59702;SDS011;45570;48.782;8.332;2023-04-07T00:01:15;7.65;;;4.93;;
59702;SDS011;45570;48.782;8.332;2023-04-07T00:03:44;6.25;;;4.68;;
59702;SDS011;45570;48.782;8.332;2023-04-07T00:06:14;6.60;;;5.18;;
59702;SDS011;45570;48.782;8.332;2023-04-07T00:08:43;5.68;;;4.57;;
59702;SDS011;45570;48.782;8.332;2023-04-07T00:11:13;5.07;;;4.40;;
59702;SDS011;45570;48.782;8.332;2023-04-07T00:13:42;5.80;;;4.97;;
59702;SDS011;45570;48.782;8.332;2023-04-07T00:16:11;7.78;;;4.55;;
59702;SDS011;45570;48.782;8.332;2023-04-07T00:18:40;6.95;;;4.35;;
59702;SDS011;45570;48.782;8.332;2023-04-07T00:21:09;6.55;;;4.72;;
59702;SDS011;45570;48.782;8.332;2023-04-07T00:23:40;7.63;;;4.85;;
59702;SDS011;45570;48.782;8.332;2023-04-07T00:26:09;8.35;;;4.30;;
59702;SDS011;45570;48.782;8.332;2023-04-07T00:28:41;4.55;;;4.10;;
59702;SDS011;45570;48.782;8.332;2023-04-07T00:31:11;8.52;;;5.25;;
59702;SDS011;45570;48.782;8.332;2023-04-07T00:33:40;8.13;;;5.45;;
59702;SDS011;45570;48.782;8.332;2023-04-07T00:36:09;9.13;;;4.90;;
59702;SDS011;45570;48.782;8.332;2023-04-07T00:38:40;9.00;;;5.60;;
59702;SDS011;45570;48.782;8.332;2023-04-07T00:41:09;8.55;;;5.30;;
59702;SDS011;45570;48.782;8.332;2023-04-07T00:43:38;7.00;;;5.60;;
59702;SDS011;45570;48.782;8.332;2023-04-07T00:46:07;10.80;;;5.45;;
59702;SDS011;45570;48.782;8.332;2023-04-07T00:48:37;5.78;;;4.00;;
59702;SDS011;45570;48.782;8.332;2023-04-07T00:51:45;5.82;;;3.88;;
59702;SDS011;45570;48.782;8.332;2023-04-07T00:54:16;6.05;;;4.18;;
59702;SDS011;45570;48.782;8.332;2023-04-07T00:56:46;5.00;;;4.50;;
59702;SDS011;45570;48.782;8.332;2023-04-07T00:59:15;7.50;;;4.80;;
59702;SDS011;45570;48.782;8.332;2023-04-07T01:01:52;12.48;;;5.28;;
59702;SDS011;45570;48.782;8.332;2023-04-07T01:04:31;8.75;;;4.57;;
59702;SDS011;45570;48.782;8.332;2023-04-07T01:07:08;10.68;;;5.03;;
59702;SDS011;45570;48.782;8.332;2023-04-07T01:10:00;5.68;;;4.85;;
59702;SDS011;45570;48.782;8.332;2023-04-07T01:12:43;7.05;;;5.25;;
59702;SDS011;45570;48.782;8.332;2023-04-07T01:15:22;8.30;;;5.65;;
59702;SDS011;45570;48.782;8.332;2023-04-07T01:17:58;9.35;;;4.95;;
59702;SDS011;45570;48.782;8.332;2023-04-07T01:20:36;5.63;;;4.53;;
59702;SDS011;45570;48.782;8.332;2023-04-07T01:23:07;6.50;;;5.20;;
59702;SDS011;45570;48.782;8.332;2023-04-07T01:25:58;9.18;;;4.88;;
59702;SDS011;45570;48.782;8.332;2023-04-07T01:28:40;6.38;;;4.68;;
59702;SDS011;45570;48.782;8.332;2023-04-07T01:31:19;9.52;;;5.22;;
59702;SDS011;45570;48.782;8.332;2023-04-07T01:33:50;5.60;;;4.25;;
59702;SDS011;45570;48.782;8.332;2023-04-07T01:36:21;6.07;;;4.32;;
59702;SDS011;45570;48.782;8.332;2023-04-07T01:38:52;6.50;;;4.35;;
59702;SDS011;45570;48.782;8.332;2023-04-07T01:41:23;6.45;;;4.60;;
59702;SDS011;45570;48.782;8.332;2023-04-07T01:43:54;5.78;;;4.00;;
59702;SDS011;45570;48.782;8.332;2023-04-07T01:46:25;8.82;;;4.30;;
59702;SDS011;45570;48.782;8.332;2023-04-07T01:48:54;6.80;;;4.10;;
59702;SDS011;45570;48.782;8.332;2023-04-07T01:51:24;7.80;;;4.28;;
59702;SDS011;45570;48.782;8.332;2023-04-07T01:53:56;7.55;;;4.00;;
59702;SDS011;45570;48.782;8.332;2023-04-07T01:56:26;7.18;;;4.07;;
59702;SDS011;45570;48.782;8.332;2023-04-07T01:58:57;4.55;;;4.07;;
59702;SDS011;45570;48.782;8.332;2023-04-07T02:01:29;5.70;;;3.90;;
59702;SDS011;45570;48.782;8.332;2023-04-07T02:04:00;5.85;;;3.88;;
59702;SDS011;45570;48.782;8.332;2023-04-07T02:06:38;6.78;;;3.65;;
59702;SDS011;45570;48.782;8.332;2023-04-07T02:09:12;6.28;;;4.30;;
59702;SDS011;45570;48.782;8.332;2023-04-07T02:11:44;7.93;;;4.07;;
59702;SDS011;45570;48.782;8.332;2023-04-07T02:14:13;6.20;;;4.47;;
59702;SDS011;45570;48.782;8.332;2023-04-07T02:17:02;5.82;;;4.45;;
59702;SDS011;45570;48.782;8.332;2023-04-07T02:19:32;7.28;;;4.45;;
59702;SDS011;45570;48.782;8.332;2023-04-07T02:22:02;6.93;;;4.38;;
59702;SDS011;45570;48.782;8.332;2023-04-07T02:24:32;7.35;;;4.63;;
59702;SDS011;45570;48.782;8.332;2023-04-07T02:27:02;6.47;;;4.43;;
59702;SDS011;45570;48.782;8.332;2023-04-07T02:29:31;5.18;;;3.90;;
59702;SDS011;45570;48.782;8.332;2023-04-07T02:32:02;5.85;;;4.10;;
59702;SDS011;45570;48.782;8.332;2023-04-07T02:34:31;6.22;;;4.68;;
59702;SDS011;45570;48.782;8.332;2023-04-07T02:37:00;8.65;;;4.50;;
59702;SDS011;45570;48.782;8.332;2023-04-07T02:39:30;7.55;;;4.15;;
59702;SDS011;45570;48.782;8.332;2023-04-07T02:41:59;5.78;;;4.60;;
59702;SDS011;45570;48.782;8.332;2023-04-07T02:44:29;8.52;;;4.68;;
59702;SDS011;45570;48.782;8.332;2023-04-07T02:46:58;6.82;;;4.38;;
59702;SDS011;45570;48.782;8.332;2023-04-07T02:49:29;5.53;;;4.40;;
59702;SDS011;45570;48.782;8.332;2023-04-07T02:51:58;7.28;;;4.65;;
59702;SDS011;45570;48.782;8.332;2023-04-07T02:54:27;5.47;;;4.45;;
59702;SDS011;45570;48.782;8.332;2023-04-07T02:56:57;4.97;;;4.15;;
59702;SDS011;45570;48.782;8.332;2023-04-07T02:59:27;7.55;;;4.90;;
59702;SDS011;45570;48.782;8.332;2023-04-07T03:01:56;6.53;;;4.30;;
59702;SDS011;45570;48.782;8.332;2023-04-07T03:04:26;7.00;;;4.25;;
59702;SDS011;45570;48.782;8.332;2023-04-07T03:06:58;8.52;;;4.80;;
59702;SDS011;45570;48.782;8.332;2023-04-07T03:09:30;6.70;;;4.53;;
59702;SDS011;45570;48.782;8.332;2023-04-07T03:11:59;10.40;;;4.70;;
59702;SDS011;45570;48.782;8.332;2023-04-07T03:14:33;9.63;;;4.88;;
59702;SDS011;45570;48.782;8.332;2023-04-07T03:17:02;5.78;;;4.63;;
59702;SDS011;45570;48.782;8.332;2023-04-07T03:19:33;7.03;;;4.97;;
59702;SDS011;45570;48.782;8.332;2023-04-07T03:22:03;6.40;;;4.72;;
59702;SDS011;45570;48.782;8.332;2023-04-07T03:24:35;9.77;;;5.22;;
59702;SDS011;45570;48.782;8.332;2023-04-07T03:27:05;7.70;;;5.43;;
59702;SDS011;45570;48.782;8.332;2023-04-07T03:29:40;7.50;;;4.33;;
59702;SDS011;45570;48.782;8.332;2023-04-07T03:32:13;6.45;;;5.20;;
59702;SDS011;45570;48.782;8.332;2023-04-07T03:34:44;5.70;;;4.72;;
59702;SDS011;45570;48.782;8.332;2023-04-07T03:37:13;7.95;;;4.55;;
59702;SDS011;45570;48.782;8.332;2023-04-07T03:39:43;7.40;;;4.93;;
59702;SDS011;45570;48.782;8.332;2023-04-07T03:42:24;6.00;;;4.70;;
59702;SDS011;45570;48.782;8.332;2023-04-07T03:44:59;5.63;;;4.80;;
59702;SDS011;45570;48.782;8.332;2023-04-07T03:47:30;9.55;;;6.22;;
59702;SDS011;45570;48.782;8.332;2023-04-07T03:50:03;6.35;;;4.38;;
59702;SDS011;45570;48.782;8.332;2023-04-07T03:52:41;5.57;;;3.92;;
59702;SDS011;45570;48.782;8.332;2023-04-07T03:55:20;4.70;;;3.63;;
59702;SDS011;45570;48.782;8.332;2023-04-07T03:57:55;6.05;;;3.72;;
59702;SDS011;45570;48.782;8.332;2023-04-07T04:00:29;5.05;;;3.97;;
59702;SDS011;45570;48.782;8.332;2023-04-07T04:03:05;8.65;;;4.28;;
59702;SDS011;45570;48.782;8.332;2023-04-07T04:05:44;7.45;;;4.07;;
59702;SDS011;45570;48.782;8.332;2023-04-07T04:08:19;9.05;;;4.70;;
59702;SDS011;45570;48.782;8.332;2023-04-07T04:10:48;10.48;;;5.18;;
59702;SDS011;45570;48.782;8.332;2023-04-07T04:13:18;6.35;;;4.85;;
59702;SDS011;45570;48.782;8.332;2023-04-07T04:15:48;5.82;;;4.70;;
59702;SDS011;45570;48.782;8.332;2023-04-07T04:18:17;7.00;;;4.57;;
59702;SDS011;45570;48.782;8.332;2023-04-07T04:20:48;7.88;;;4.47;;
59702;SDS011;45570;48.782;8.332;2023-04-07T04:23:18;5.97;;;4.38;;
59702;SDS011;45570;48.782;8.332;2023-04-07T04:25:51;14.35;;;5.40;;
59702;SDS011;45570;48.782;8.332;2023-04-07T04:28:20;6.30;;;4.53;;
59702;SDS011;45570;48.782;8.332;2023-04-07T04:30:50;7.07;;;4.65;;
59702;SDS011;45570;48.782;8.332;2023-04-07T04:33:19;6.93;;;3.88;;
59702;SDS011;45570;48.782;8.332;2023-04-07T04:35:55;7.57;;;4.57;;
59702;SDS011;45570;48.782;8.332;2023-04-07T04:38:25;6.07;;;4.00;;
59702;SDS011;45570;48.782;8.332;2023-04-07T04:41:13;4.07;;;3.47;;
59702;SDS011;45570;48.782;8.332;2023-04-07T04:43:43;7.45;;;4.60;;
59702;SDS011;45570;48.782;8.332;2023-04-07T04:46:18;8.00;;;4.30;;
59702;SDS011;45570;48.782;8.332;2023-04-07T04:48:48;5.68;;;3.40;;
59702;SDS011;45570;48.782;8.332;2023-04-07T04:51:21;6.20;;;3.60;;
59702;SDS011;45570;48.782;8.332;2023-04-07T04:53:55;7.88;;;4.45;;
59702;SDS011;45570;48.782;8.332;2023-04-07T04:56:26;7.05;;;4.20;;
59702;SDS011;45570;48.782;8.332;2023-04-07T04:58:55;8.80;;;4.38;;
59702;SDS011;45570;48.782;8.332;2023-04-07T05:01:51;6.13;;;3.83;;
59702;SDS011;45570;48.782;8.332;2023-04-07T05:04:20;8.15;;;4.55;;
59702;SDS011;45570;48.782;8.332;2023-04-07T05:07:00;8.23;;;4.28;;
59702;SDS011;45570;48.782;8.332;2023-04-07T05:09:30;6.97;;;4.80;;
59702;SDS011;45570;48.782;8.332;2023-04-07T05:12:00;5.90;;;4.50;;
59702;SDS011;45570;48.782;8.332;2023-04-07T05:14:33;6.47;;;4.80;;
59702;SDS011;45570;48.782;8.332;2023-04-07T05:17:05;5.35;;;4.38;;
59702;SDS011;45570;48.782;8.332;2023-04-07T05:19:34;9.00;;;4.80;;
59702;SDS011;45570;48.782;8.332;2023-04-07T05:22:13;5.93;;;4.43;;
59702;SDS011;45570;48.782;8.332;2023-04-07T05:24:45;6.55;;;4.90;;
59702;SDS011;45570;48.782;8.332;2023-04-07T05:27:15;6.57;;;4.85;;
59702;SDS011;45570;48.782;8.332;2023-04-07T05:29:48;6.70;;;4.88;;
59702;SDS011;45570;48.782;8.332;2023-04-07T05:32:26;9.32;;;4.85;;
59702;SDS011;45570;48.782;8.332;2023-04-07T05:35:00;6.72;;;5.03;;
59702;SDS011;45570;48.782;8.332;2023-04-07T05:37:35;6.07;;;4.50;;
59702;SDS011;45570;48.782;8.332;2023-04-07T05:40:06;7.35;;;4.53;;
59702;SDS011;45570;48.782;8.332;2023-04-07T05:42:36;5.97;;;4.32;;
59702;SDS011;45570;48.782;8.332;2023-04-07T05:45:07;5.13;;;4.07;;
59702;SDS011;45570;48.782;8.332;2023-04-07T05:47:42;4.43;;;3.92;;
59702;SDS011;45570;48.782;8.332;2023-04-07T05:50:13;5.18;;;4.13;;
59702;SDS011;45570;48.782;8.332;2023-04-07T05:52:46;5.95;;;4.00;;
59702;SDS011;45570;48.782;8.332;2023-04-07T05:55:20;6.80;;;4.55;;
59702;SDS011;45570;48.782;8.332;2023-04-07T05:57:51;10.02;;;5.20;;
59702;SDS011;45570;48.782;8.332;2023-04-07T06:00:23;6.35;;;4.07;;
59702;SDS011;45570;48.782;8.332;2023-04-07T06:03:15;7.97;;;4.70;;
59702;SDS011;45570;48.782;8.332;2023-04-07T06:05:56;6.38;;;5.00;;
59702;SDS011;45570;48.782;8.332;2023-04-07T06:08:27;6.75;;;4.90;;
59702;SDS011;45570;48.782;8.332;2023-04-07T06:10:56;5.28;;;4.03;;
59702;SDS011;45570;48.782;8.332;2023-04-07T06:13:25;7.43;;;4.45;;
59702;SDS011;45570;48.782;8.332;2023-04-07T06:15:54;7.57;;;4.15;;
59702;SDS011;45570;48.782;8.332;2023-04-07T06:18:24;7.05;;;4.75;;
59702;SDS011;45570;48.782;8.332;2023-04-07T06:20:53;6.15;;;4.80;;
59702;SDS011;45570;48.782;8.332;2023-04-07T06:23:24;4.75;;;3.90;;
59702;SDS011;45570;48.782;8.332;2023-04-07T06:25:55;9.35;;;4.18;;
59702;SDS011;45570;48.782;8.332;2023-04-07T06:28:25;8.02;;;4.13;;
59702;SDS011;45570;48.782;8.332;2023-04-07T06:30:54;7.22;;;4.13;;
59702;SDS011;45570;48.782;8.332;2023-04-07T06:33:25;9.50;;;4.75;;
59702;SDS011;45570;48.782;8.332;2023-04-07T06:35:55;8.35;;;4.60;;
59702;SDS011;45570;48.782;8.332;2023-04-07T06:38:24;9.60;;;4.97;;
59702;SDS011;45570;48.782;8.332;2023-04-07T06:40:55;5.60;;;4.88;;
59702;SDS011;45570;48.782;8.332;2023-04-07T06:43:24;10.50;;;5.05;;
59702;SDS011;45570;48.782;8.332;2023-04-07T06:45:59;7.75;;;5.15;;
59702;SDS011;45570;48.782;8.332;2023-04-07T06:48:28;7.80;;;5.00;;
59702;SDS011;45570;48.782;8.332;2023-04-07T06:50:57;10.75;;;4.80;;
59702;SDS011;45570;48.782;8.332;2023-04-07T06:53:28;10.18;;;4.65;;
59702;SDS011;45570;48.782;8.332;2023-04-07T06:56:03;6.47;;;4.28;;
59702;SDS011;45570;48.782;8.332;2023-04-07T06:58:34;6.18;;;4.28;;
59702;SDS011;45570;48.782;8.332;2023-04-07T07:01:03;6.57;;;4.40;;
59702;SDS011;45570;48.782;8.332;2023-04-07T07:03:33;8.90;;;4.45;;
59702;SDS011;45570;48.782;8.332;2023-04-07T07:06:03;7.85;;;5.07;;
59702;SDS011;45570;48.782;8.332;2023-04-07T07:08:33;5.57;;;4.20;;
59702;SDS011;45570;48.782;8.332;2023-04-07T07:11:03;4.40;;;3.97;;
59702;SDS011;45570;48.782;8.332;2023-04-07T07:13:32;7.72;;;4.30;;
59702;SDS011;45570;48.782;8.332;2023-04-07T07:16:01;6.20;;;4.53;;
59702;SDS011;45570;48.782;8.332;2023-04-07T07:18:31;5.85;;;4.20;;
59702;SDS011;45570;48.782;8.332;2023-04-07T07:21:00;6.63;;;4.25;;
59702;SDS011;45570;48.782;8.332;2023-04-07T07:23:29;5.30;;;4.00;;
59702;SDS011;45570;48.782;8.332;2023-04-07T07:26:01;8.27;;;3.95;;
59702;SDS011;45570;48.782;8.332;2023-04-07T07:28:30;6.75;;;4.40;;
59702;SDS011;45570;48.782;8.332;2023-04-07T07:30:59;6.88;;;4.50;;
59702;SDS011;45570;48.782;8.332;2023-04-07T07:33:36;6.45;;;4.25;;
59702;SDS011;45570;48.782;8.332;2023-04-07T07:36:06;5.57;;;4.30;;
59702;SDS011;45570;48.782;8.332;2023-04-07T07:38:35;4.80;;;4.25;;
59702;SDS011;45570;48.782;8.332;2023-04-07T07:41:06;6.75;;;4.43;;
59702;SDS011;45570;48.782;8.332;2023-04-07T07:43:35;6.20;;;4.38;;
59702;SDS011;45570;48.782;8.332;2023-04-07T07:46:05;5.03;;;3.60;;
59702;SDS011;45570;48.782;8.332;2023-04-07T07:48:34;6.68;;;3.55;;
59702;SDS011;45570;48.782;8.332;2023-04-07T07:51:03;5.75;;;4.25;;
59702;SDS011;45570;48.782;8.332;2023-04-07T07:53:33;7.15;;;3.97;;
59702;SDS011;45570;48.782;8.332;2023-04-07T07:56:02;5.05;;;4.25;;
59702;SDS011;45570;48.782;8.332;2023-04-07T07:58:32;7.13;;;4.20;;
59702;SDS011;45570;48.782;8.332;2023-04-07T08:01:02;6.35;;;4.30;;
59702;SDS011;45570;48.782;8.332;2023-04-07T08:03:31;5.53;;;4.28;;
59702;SDS011;45570;48.782;8.332;2023-04-07T08:06:00;6.20;;;4.22;;
59702;SDS011;45570;48.782;8.332;2023-04-07T08:08:30;5.88;;;4.30;;
59702;SDS011;45570;48.782;8.332;2023-04-07T08:10:59;5.85;;;4.15;;
59702;SDS011;45570;48.782;8.332;2023-04-07T08:13:28;6.15;;;4.20;;
59702;SDS011;45570;48.782;8.332;2023-04-07T08:15:59;7.22;;;3.90;;
59702;SDS011;45570;48.782;8.332;2023-04-07T08:18:28;7.13;;;3.92;;
59702;SDS011;45570;48.782;8.332;2023-04-07T08:20:57;6.45;;;4.20;;
59702;SDS011;45570;48.782;8.332;2023-04-07T08:23:27;8.05;;;4.65;;
59702;SDS011;45570;48.782;8.332;2023-04-07T08:25:56;7.80;;;4.32;;
59702;SDS011;45570;48.782;8.332;2023-04-07T08:28:25;6.72;;;4.68;;
59702;SDS011;45570;48.782;8.332;2023-04-07T08:30:54;8.73;;;5.63;;
59702;SDS011;45570;48.782;8.332;2023-04-07T08:33:37;8.73;;;5.05;;
59702;SDS011;45570;48.782;8.332;2023-04-07T08:36:10;7.72;;;5.38;;
59702;SDS011;45570;48.782;8.332;2023-04-07T08:38:39;9.43;;;5.47;;
59702;SDS011;45570;48.782;8.332;2023-04-07T08:41:10;7.47;;;5.85;;
59702;SDS011;45570;48.782;8.332;2023-04-07T08:46:15;13.18;;;5.22;;
59702;SDS011;45570;48.782;8.332;2023-04-07T08:48:51;8.88;;;5.60;;
59702;SDS011;45570;48.782;8.332;2023-04-07T08:51:21;8.38;;;6.25;;
59702;SDS011;45570;48.782;8.332;2023-04-07T08:53:57;9.53;;;6.03;;
59702;SDS011;45570;48.782;8.332;2023-04-07T08:56:32;8.60;;;5.38;;
59702;SDS011;45570;48.782;8.332;2023-04-07T08:59:02;5.80;;;5.18;;
59702;SDS011;45570;48.782;8.332;2023-04-07T09:01:34;7.03;;;5.80;;
59702;SDS011;45570;48.782;8.332;2023-04-07T09:04:06;8.45;;;5.68;;
59702;SDS011;45570;48.782;8.332;2023-04-07T09:06:37;7.85;;;5.93;;
59702;SDS011;45570;48.782;8.332;2023-04-07T09:09:06;8.88;;;5.60;;
59702;SDS011;45570;48.782;8.332;2023-04-07T09:11:35;10.60;;;5.45;;
59702;SDS011;45570;48.782;8.332;2023-04-07T09:14:06;7.85;;;5.05;;
59702;SDS011;45570;48.782;8.332;2023-04-07T09:16:35;9.07;;;6.57;;
59702;SDS011;45570;48.782;8.332;2023-04-07T09:19:07;8.35;;;6.38;;
59702;SDS011;45570;48.782;8.332;2023-04-07T09:21:48;10.80;;;6.80;;
59702;SDS011;45570;48.782;8.332;2023-04-07T09:24:22;8.93;;;6.68;;
59702;SDS011;45570;48.782;8.332;2023-04-07T09:27:08;12.25;;;7.30;;
59702;SDS011;45570;48.782;8.332;2023-04-07T09:29:44;14.88;;;6.47;;
59702;SDS011;45570;48.782;8.332;2023-04-07T09:32:20;12.32;;;6.30;;
59702;SDS011;45570;48.782;8.332;2023-04-07T09:35:06;11.10;;;7.05;;
59702;SDS011;45570;48.782;8.332;2023-04-07T09:37:36;9.57;;;6.18;;
59702;SDS011;45570;48.782;8.332;2023-04-07T09:40:06;10.20;;;6.18;;
59702;SDS011;45570;48.782;8.332;2023-04-07T09:42:43;8.32;;;6.20;;
59702;SDS011;45570;48.782;8.332;2023-04-07T09:45:19;9.50;;;6.63;;
59702;SDS011;45570;48.782;8.332;2023-04-07T09:48:03;10.98;;;6.20;;
59702;SDS011;45570;48.782;8.332;2023-04-07T09:50:38;9.82;;;7.45;;
59702;SDS011;45570;48.782;8.332;2023-04-07T09:53:11;8.80;;;6.68;;
59702;SDS011;45570;48.782;8.332;2023-04-07T09:55:41;8.43;;;5.93;;
59702;SDS011;45570;48.782;8.332;2023-04-07T09:58:11;8.80;;;6.75;;
59702;SDS011;45570;48.782;8.332;2023-04-07T10:00:42;10.13;;;6.82;;
59702;SDS011;45570;48.782;8.332;2023-04-07T10:03:13;13.68;;;6.53;;
59702;SDS011;45570;48.782;8.332;2023-04-07T10:05:44;9.73;;;6.47;;
59702;SDS011;45570;48.782;8.332;2023-04-07T10:08:14;9.85;;;6.40;;
59702;SDS011;45570;48.782;8.332;2023-04-07T10:10:44;9.02;;;5.63;;
59702;SDS011;45570;48.782;8.332;2023-04-07T10:13:16;6.85;;;5.45;;
59702;SDS011;45570;48.782;8.332;2023-04-07T10:15:46;9.38;;;5.82;;
59702;SDS011;45570;48.782;8.332;2023-04-07T10:18:16;8.63;;;5.53;;
59702;SDS011;45570;48.782;8.332;2023-04-07T10:20:50;9.73;;;6.50;;
59702;SDS011;45570;48.782;8.332;2023-04-07T10:23:22;17.20;;;7.90;;
59702;SDS011;45570;48.782;8.332;2023-04-07T10:25:55;9.10;;;6.15;;
59702;SDS011;45570;48.782;8.332;2023-04-07T10:28:27;10.63;;;6.13;;
59702;SDS011;45570;48.782;8.332;2023-04-07T10:30:57;8.00;;;5.35;;
59702;SDS011;45570;48.782;8.332;2023-04-07T10:33:43;9.13;;;5.70;;
59702;SDS011;45570;48.782;8.332;2023-04-07T10:36:17;9.27;;;5.93;;
59702;SDS011;45570;48.782;8.332;2023-04-07T10:41:47;10.30;;;4.57;;
59702;SDS011;45570;48.782;8.332;2023-04-07T10:47:19;8.95;;;5.25;;
59702;SDS011;45570;48.782;8.332;2023-04-07T10:52:48;8.65;;;4.35;;
59702;SDS011;45570;48.782;8.332;2023-04-07T10:55:34;7.95;;;4.90;;
59702;SDS011;45570;48.782;8.332;2023-04-07T10:58:17;8.27;;;4.50;;
59702;SDS011;45570;48.782;8.332;2023-04-07T11:03:52;8.43;;;5.03;;
59702;SDS011;45570;48.782;8.332;2023-04-07T11:06:23;12.35;;;4.75;;
59702;SDS011;45570;48.782;8.332;2023-04-07T11:08:55;8.32;;;5.25;;
59702;SDS011;45570;48.782;8.332;2023-04-07T11:11:37;6.47;;;4.20;;
59702;SDS011;45570;48.782;8.332;2023-04-07T11:14:08;8.02;;;4.63;;
59702;SDS011;45570;48.782;8.332;2023-04-07T11:16:41;9.68;;;4.82;;
59702;SDS011;45570;48.782;8.332;2023-04-07T11:19:11;9.75;;;5.40;;
59702;SDS011;45570;48.782;8.332;2023-04-07T11:21:41;10.38;;;5.32;;
59702;SDS011;45570;48.782;8.332;2023-04-07T11:24:15;8.40;;;5.50;;
59702;SDS011;45570;48.782;8.332;2023-04-07T11:26:59;7.38;;;5.15;;
59702;SDS011;45570;48.782;8.332;2023-04-07T11:29:29;6.88;;;4.78;;
59702;SDS011;45570;48.782;8.332;2023-04-07T11:32:00;8.30;;;5.18;;
59702;SDS011;45570;48.782;8.332;2023-04-07T11:34:30;7.03;;;4.90;;
59702;SDS011;45570;48.782;8.332;2023-04-07T11:39:52;9.23;;;4.95;;
59702;SDS011;45570;48.782;8.332;2023-04-07T11:42:30;8.38;;;5.18;;
59702;SDS011;45570;48.782;8.332;2023-04-07T11:45:00;11.95;;;5.72;;
59702;SDS011;45570;48.782;8.332;2023-04-07T11:47:33;11.10;;;5.53;;
59702;SDS011;45570;48.782;8.332;2023-04-07T11:50:03;8.57;;;5.28;;
59702;SDS011;45570;48.782;8.332;2023-04-07T11:52:39;8.45;;;4.60;;
59702;SDS011;45570;48.782;8.332;2023-04-07T11:55:17;7.50;;;5.07;;
59702;SDS011;45570;48.782;8.332;2023-04-07T11:57:48;7.93;;;4.47;;
59702;SDS011;45570;48.782;8.332;2023-04-07T12:00:18;9.50;;;5.07;;
59702;SDS011;45570;48.782;8.332;2023-04-07T12:02:48;11.13;;;5.18;;
59702;SDS011;45570;48.782;8.332;2023-04-07T12:05:18;8.45;;;4.65;;
59702;SDS011;45570;48.782;8.332;2023-04-07T12:07:51;9.35;;;5.30;;
59702;SDS011;45570;48.782;8.332;2023-04-07T12:10:24;9.38;;;4.93;;
59702;SDS011;45570;48.782;8.332;2023-04-07T12:12:54;7.63;;;4.28;;
59702;SDS011;45570;48.782;8.332;2023-04-07T12:15:25;9.65;;;4.82;;
59702;SDS011;45570;48.782;8.332;2023-04-07T12:17:54;11.55;;;4.50;;
59702;SDS011;45570;48.782;8.332;2023-04-07T12:20:24;7.60;;;3.72;;
59702;SDS011;45570;48.782;8.332;2023-04-07T12:22:54;6.97;;;3.40;;
59702;SDS011;45570;48.782;8.332;2023-04-07T12:25:24;5.28;;;3.63;;
59702;SDS011;45570;48.782;8.332;2023-04-07T12:27:54;7.88;;;3.78;;
59702;SDS011;45570;48.782;8.332;2023-04-07T12:30:23;6.45;;;3.67;;
59702;SDS011;45570;48.782;8.332;2023-04-07T12:32:53;7.07;;;3.65;;
59702;SDS011;45570;48.782;8.332;2023-04-07T12:35:22;8.32;;;4.10;;
59702;SDS011;45570;48.782;8.332;2023-04-07T12:37:51;9.23;;;4.32;;
59702;SDS011;45570;48.782;8.332;2023-04-07T12:40:21;9.95;;;4.00;;
59702;SDS011;45570;48.782;8.332;2023-04-07T12:42:52;6.13;;;3.80;;
59702;SDS011;45570;48.782;8.332;2023-04-07T12:45:24;5.05;;;4.10;;
59702;SDS011;45570;48.782;8.332;2023-04-07T12:47:53;6.82;;;3.97;;
59702;SDS011;45570;48.782;8.332;2023-04-07T12:50:22;8.05;;;4.13;;
59702;SDS011;45570;48.782;8.332;2023-04-07T12:52:52;10.15;;;4.50;;
59702;SDS011;45570;48.782;8.332;2023-04-07T12:55:21;8.43;;;4.40;;
59702;SDS011;45570;48.782;8.332;2023-04-07T12:57:52;5.88;;;4.55;;
59702;SDS011;45570;48.782;8.332;2023-04-07T13:00:21;6.28;;;3.95;;
59702;SDS011;45570;48.782;8.332;2023-04-07T13:02:51;7.00;;;3.95;;
59702;SDS011;45570;48.782;8.332;2023-04-07T13:05:21;7.60;;;3.22;;
59702;SDS011;45570;48.782;8.332;2023-04-07T13:07:50;7.32;;;3.88;;
59702;SDS011;45570;48.782;8.332;2023-04-07T13:10:19;7.75;;;3.95;;
59702;SDS011;45570;48.782;8.332;2023-04-07T13:12:48;8.25;;;3.58;;
59702;SDS011;45570;48.782;8.332;2023-04-07T13:15:19;7.75;;;3.95;;
59702;SDS011;45570;48.782;8.332;2023-04-07T13:17:49;6.95;;;3.65;;
59702;SDS011;45570;48.782;8.332;2023-04-07T13:20:18;9.55;;;3.72;;
59702;SDS011;45570;48.782;8.332;2023-04-07T13:22:47;5.35;;;3.88;;
59702;SDS011;45570;48.782;8.332;2023-04-07T13:25:31;4.95;;;2.95;;
59702;SDS011;45570;48.782;8.332;2023-04-07T13:28:00;4.60;;;3.58;;
59702;SDS011;45570;48.782;8.332;2023-04-07T13:30:32;5.15;;;3.40;;
59702;SDS011;45570;48.782;8.332;2023-04-07T13:33:01;4.30;;;2.92;;
59702;SDS011;45570;48.782;8.332;2023-04-07T13:35:31;5.53;;;2.97;;
59702;SDS011;45570;48.782;8.332;2023-04-07T13:38:02;3.33;;;2.65;;
59702;SDS011;45570;48.782;8.332;2023-04-07T13:40:32;4.63;;;3.00;;
59702;SDS011;45570;48.782;8.332;2023-04-07T13:43:02;3.28;;;2.67;;
59702;SDS011;45570;48.782;8.332;2023-04-07T13:45:34;4.03;;;2.50;;
59702;SDS011;45570;48.782;8.332;2023-04-07T13:48:03;5.82;;;3.10;;
59702;SDS011;45570;48.782;8.332;2023-04-07T13:50:35;4.03;;;2.55;;
59702;SDS011;45570;48.782;8.332;2023-04-07T13:53:05;4.28;;;2.63;;
59702;SDS011;45570;48.782;8.332;2023-04-07T13:55:35;5.03;;;2.50;;
59702;SDS011;45570;48.782;8.332;2023-04-07T13:58:04;3.35;;;2.03;;
59702;SDS011;45570;48.782;8.332;2023-04-07T14:00:38;3.00;;;1.80;;
59702;SDS011;45570;48.782;8.332;2023-04-07T14:03:07;4.93;;;2.08;;
59702;SDS011;45570;48.782;8.332;2023-04-07T14:05:36;6.05;;;2.30;;
59702;SDS011;45570;48.782;8.332;2023-04-07T14:08:06;3.78;;;2.90;;
59702;SDS011;45570;48.782;8.332;2023-04-07T14:10:35;6.18;;;2.28;;
59702;SDS011;45570;48.782;8.332;2023-04-07T14:13:06;4.97;;;2.13;;
59702;SDS011;45570;48.782;8.332;2023-04-07T14:15:35;4.22;;;2.20;;
59702;SDS011;45570;48.782;8.332;2023-04-07T14:18:06;5.05;;;2.60;;
59702;SDS011;45570;48.782;8.332;2023-04-07T14:20:36;7.55;;;3.30;;
59702;SDS011;45570;48.782;8.332;2023-04-07T14:23:05;3.67;;;2.95;;
59702;SDS011;45570;48.782;8.332;2023-04-07T14:25:34;4.97;;;3.20;;
59702;SDS011;45570;48.782;8.332;2023-04-07T14:28:03;5.93;;;2.75;;
59702;SDS011;45570;48.782;8.332;2023-04-07T14:30:34;4.47;;;2.45;;
59702;SDS011;45570;48.782;8.332;2023-04-07T14:33:06;8.13;;;3.22;;
59702;SDS011;45570;48.782;8.332;2023-04-07T14:35:35;4.28;;;2.83;;
59702;SDS011;45570;48.782;8.332;2023-04-07T14:38:05;6.28;;;2.75;;
59702;SDS011;45570;48.782;8.332;2023-04-07T14:40:34;5.53;;;3.28;;
59702;SDS011;45570;48.782;8.332;2023-04-07T14:43:03;6.22;;;3.08;;
59702;SDS011;45570;48.782;8.332;2023-04-07T14:45:33;3.80;;;3.20;;
59702;SDS011;45570;48.782;8.332;2023-04-07T14:48:03;4.53;;;3.17;;
59702;SDS011;45570;48.782;8.332;2023-04-07T14:50:34;4.97;;;2.65;;
59702;SDS011;45570;48.782;8.332;2023-04-07T14:53:04;3.63;;;2.45;;
59702;SDS011;45570;48.782;8.332;2023-04-07T14:55:34;5.80;;;2.97;;
59702;SDS011;45570;48.782;8.332;2023-04-07T14:58:03;6.40;;;2.90;;
59702;SDS011;45570;48.782;8.332;2023-04-07T15:00:32;6.63;;;3.10;;
59702;SDS011;45570;48.782;8.332;2023-04-07T15:03:08;4.28;;;2.65;;
59702;SDS011;45570;48.782;8.332;2023-04-07T15:05:58;6.60;;;2.83;;
59702;SDS011;45570;48.782;8.332;2023-04-07T15:08:27;4.30;;;2.60;;
59702;SDS011;45570;48.782;8.332;2023-04-07T15:10:56;5.65;;;2.55;;
59702;SDS011;45570;48.782;8.332;2023-04-07T15:13:25;3.45;;;2.55;;
59702;SDS011;45570;48.782;8.332;2023-04-07T15:15:54;3.80;;;2.10;;
59702;SDS011;45570;48.782;8.332;2023-04-07T15:18:24;2.40;;;1.95;;
59702;SDS011;45570;48.782;8.332;2023-04-07T15:21:56;4.25;;;1.83;;
59702;SDS011;45570;48.782;8.332;2023-04-07T15:24:26;3.08;;;1.77;;
59702;SDS011;45570;48.782;8.332;2023-04-07T15:26:56;1.67;;;1.52;;
59702;SDS011;45570;48.782;8.332;2023-04-07T15:29:25;2.45;;;2.05;;
59702;SDS011;45570;48.782;8.332;2023-04-07T15:31:54;5.80;;;1.90;;